Terminal Aerodrome Forecast
Issued by NWS Northern Indiana

Home | Current Version | Previous Version | Text Only | Print | Product List | Glossary Off
Versions: 1 2 3 4 5 6 7 8 9 10 11 12 13 14 15 16 17 18

342
FTUS43 KIWX 180802 AAA
TAFFWA
TAF AMD
KFWA 180802Z 1808/1906 21010KT P6SM -SHRA OVC025 WS020/21050KT
     FM181400 21013G20KT 4SM SHRA BR OVC008
      TEMPO 1815/1819 2SM TSRA BR BKN006CB
     FM182300 31020G30KT P6SM OVC025=

USA.gov is the U.S. government's official web portal to all federal, state and local government web resources and services.